Time;durP1;ratioP1;P1;durP2;ratioP2;P2;SDS_P1;SDS_P2;PMS_P1;PMS_P2;Temp;Humidity;BMP_temperature;BMP_pressure;BME280_temperature;BME280_humidity;BME280_pressure;Samples;Min_cycle;Max_cycle;Signal;HPM_P1;HPM_P2
2022/07/13 00:00:43;;;;;;;5.23;3.10;;;;;;;16.36;64.83;95187.59;4951219;29;20205;-91
2022/07/13 00:03:11;;;;;;;5.40;3.60;;;;;;;16.41;64.61;95177.94;4952003;29;20212;-90
2022/07/13 00:05:38;;;;;;;6.93;3.47;;;;;;;16.41;64.76;95179.78;4951592;29;20205;-91
2022/07/13 00:08:06;;;;;;;7.13;3.67;;;;;;;16.32;65.54;95173.34;4952308;29;20201;-90
2022/07/13 00:10:33;;;;;;;5.80;4.27;;;;;;;16.31;65.30;95174.38;4951098;29;20615;-89
2022/07/13 00:13:00;;;;;;;8.80;4.77;;;;;;;16.07;66.81;95147.53;4951825;29;20219;-88
2022/07/13 00:15:27;;;;;;;8.70;5.07;;;;;;;15.95;65.34;95136.34;4952809;29;20670;-89
2022/07/13 00:17:54;;;;;;;6.27;5.00;;;;;;;16.17;64.49;95173.09;4951174;29;21192;-86
2022/07/13 00:20:22;;;;;;;9.93;4.87;;;;;;;16.17;63.95;95170.47;4950293;29;20665;-85
2022/07/13 00:22:49;;;;;;;6.90;4.83;;;;;;;16.17;64.20;95173.09;4948288;29;20691;-86
2022/07/13 00:25:16;;;;;;;6.87;4.93;;;;;;;15.88;64.22;95140.94;4950694;29;20204;-89
2022/07/13 00:27:43;;;;;;;10.23;5.60;;;;;;;16.11;65.41;95171.44;4951166;29;20288;-90
2022/07/13 00:30:11;;;;;;;7.90;5.63;;;;;;;15.99;66.04;95158.41;4952071;29;20221;-89
2022/07/13 00:32:38;;;;;;;9.20;4.60;;;;;;;16.05;66.84;95175.00;4951874;29;20217;-87
2022/07/13 00:35:06;;;;;;;8.87;5.07;;;;;;;15.97;67.16;95170.97;4952124;29;20325;-90
2022/07/13 00:37:34;;;;;;;6.77;5.10;;;;;;;15.98;67.40;95177.00;4952145;29;20594;-90
2022/07/13 00:40:01;;;;;;;7.53;4.63;;;;;;;15.99;67.00;95173.38;4954774;29;20205;-90
2022/07/13 00:42:29;;;;;;;5.47;4.17;;;;;;;15.74;67.36;95145.72;4952321;29;20205;-91
2022/07/13 00:44:56;;;;;;;7.53;4.60;;;;;;;15.89;67.93;95166.13;4951863;29;20217;-90
2022/07/13 00:47:24;;;;;;;5.63;4.40;;;;;;;15.80;68.03;95154.44;4952164;29;20684;-91
2022/07/13 00:49:51;;;;;;;6.53;4.00;;;;;;;15.88;68.50;95156.66;4951634;29;20205;-91
2022/07/13 00:52:17;;;;;;;4.53;3.70;;;;;;;15.86;68.65;95166.59;4952250;29;20210;-90
2022/07/13 00:54:47;;;;;;;7.70;3.50;;;;;;;15.86;68.48;95169.22;4951659;29;20232;-96
2022/07/13 00:57:15;;;;;;;5.00;3.50;;;;;;;15.83;69.29;95173.13;4951641;29;20217;-91
2022/07/13 00:59:42;;;;;;;5.40;3.30;;;;;;;15.83;68.94;95170.50;4953279;29;20205;-90
2022/07/13 01:02:09;;;;;;;6.00;2.80;;;;;;;15.86;68.57;95169.22;4965146;29;20231;-92
2022/07/13 01:04:36;;;;;;;4.03;2.73;;;;;;;15.66;69.15;95155.78;4956378;29;20703;-93
2022/07/13 01:07:04;;;;;;;6.53;2.73;;;;;;;15.66;69.40;95161.03;4954244;29;20304;-92
2022/07/13 01:09:32;;;;;;;4.40;2.57;;;;;;;15.54;69.24;95144.56;4953921;29;20213;-92
2022/07/13 01:12:00;;;;;;;6.97;3.17;;;;;;;15.62;69.67;95176.41;4954412;29;20213;-91
2022/07/13 01:14:29;;;;;;;5.10;2.80;;;;;;;15.19;70.55;95145.50;4952854;29;20625;-90
2022/07/13 01:16:56;;;;;;;3.83;2.60;;;;;;;15.33;70.58;95178.22;4952881;29;20320;-91
2022/07/13 01:19:24;;;;;;;5.27;2.70;;;;;;;15.21;70.90;95163.56;4957145;29;20205;-90
2022/07/13 01:21:56;;;;;;;4.27;2.60;;;;;;;15.26;71.15;95166.31;4954348;29;20208;-91
2022/07/13 01:24:25;;;;;;;2.77;2.33;;;;;;;15.17;71.22;95165.88;4953728;29;20263;-91
2022/07/13 01:26:53;;;;;;;2.93;2.60;;;;;;;15.21;70.77;95169.63;4954406;29;20213;-91
2022/07/13 01:29:20;;;;;;;4.53;2.70;;;;;;;15.14;70.54;95165.56;4953951;29;20202;-91
2022/07/13 01:31:47;;;;;;;7.27;2.90;;;;;;;14.92;71.41;95156.75;4953631;29;20217;-91
2022/07/13 01:34:14;;;;;;;4.90;2.70;;;;;;;14.80;71.62;95163.84;4952837;29;20883;-91
2022/07/13 01:36:42;;;;;;;6.70;2.97;;;;;;;14.44;72.19;95113.41;4954489;29;20652;-91
2022/07/13 01:39:10;;;;;;;4.83;3.13;;;;;;;14.50;73.27;95124.75;4953474;29;20735;-91
2022/07/13 01:41:38;;;;;;;5.53;3.10;;;;;;;14.50;73.09;95141.25;4952194;29;20230;-91
2022/07/13 01:44:05;;;;;;;4.40;2.90;;;;;;;14.66;73.80;95161.47;4953193;29;20296;-91
2022/07/13 01:46:32;;;;;;;5.57;3.20;;;;;;;14.66;73.28;95156.22;4953594;29;20210;-93
2022/07/13 01:48:59;;;;;;;5.53;3.00;;;;;;;14.60;73.34;95138.81;4954862;29;20237;-92
2022/07/13 01:51:26;;;;;;;4.47;3.07;;;;;;;14.70;73.69;95146.91;4955151;29;20724;-92
2022/07/13 01:53:53;;;;;;;6.60;3.17;;;;;;;14.71;73.63;95150.31;4954656;29;20669;-90
2022/07/13 01:56:20;;;;;;;5.37;3.20;;;;;;;14.70;74.27;95157.38;4952984;29;20248;-84
2022/07/13 01:58:49;;;;;;;6.13;3.33;;;;;;;14.71;74.78;95158.97;4950263;29;20208;-85
2022/07/13 02:01:16;;;;;;;3.47;2.60;;;;;;;14.67;74.75;95167.50;4951422;29;20201;-85
2022/07/13 02:03:43;;;;;;;6.10;3.10;;;;;;;14.56;75.25;95153.41;4951236;29;20213;-91
2022/07/13 02:06:10;;;;;;;8.07;3.40;;;;;;;14.68;75.41;95169.09;4952025;28;20293;-92
2022/07/13 02:08:37;;;;;;;5.87;3.20;;;;;;;14.47;76.03;95141.72;4954788;29;20575;-89
2022/07/13 02:11:04;;;;;;;6.57;3.40;;;;;;;14.56;75.92;95139.53;4955489;29;20212;-91
2022/07/13 02:13:31;;;;;;;7.17;3.50;;;;;;;14.69;76.37;95176.69;4955310;29;20233;-90
2022/07/13 02:15:59;;;;;;;4.93;3.10;;;;;;;14.64;76.03;95149.63;4955149;29;20222;-91
2022/07/13 02:18:26;;;;;;;8.00;3.30;;;;;;;14.76;76.10;95171.34;4954894;29;20580;-91
2022/07/13 02:20:53;;;;;;;6.03;3.40;;;;;;;14.46;75.84;95127.03;4954853;29;20211;-88
2022/07/13 02:23:21;;;;;;;4.60;3.50;;;;;;;14.69;76.23;95160.19;4954995;29;20212;-89
2022/07/13 02:25:50;;;;;;;11.27;4.20;;;;;;;14.59;76.59;95160.81;4953713;29;20208;-89
2022/07/13 02:28:17;;;;;;;7.30;4.10;;;;;;;14.51;77.13;95144.66;4954516;29;20260;-89
2022/07/13 02:30:45;;;;;;;8.97;3.97;;;;;;;14.58;76.79;95172.28;4953886;29;20307;-89
2022/07/13 02:33:14;;;;;;;6.33;3.97;;;;;;;14.27;76.98;95128.16;4953891;29;20665;-90
2022/07/13 02:35:41;;;;;;;6.43;3.90;;;;;;;14.37;76.90;95148.56;4953461;29;20253;-88
2022/07/13 02:38:08;;;;;;;9.40;3.53;;;;;;;14.50;76.52;95166.59;4952806;29;20311;-88
2022/07/13 02:40:36;;;;;;;7.83;4.27;;;;;;;14.43;76.86;95155.50;4951901;29;20300;-90
2022/07/13 02:43:03;;;;;;;9.30;4.20;;;;;;;14.53;76.90;95169.56;4953552;29;20209;-90
2022/07/13 02:45:30;;;;;;;6.97;3.97;;;;;;;14.48;77.63;95169.47;4952783;29;20220;-90
2022/07/13 02:47:58;;;;;;;5.43;4.10;;;;;;;14.16;77.64;95114.09;4953241;29;20209;-91
2022/07/13 02:50:27;;;;;;;5.93;3.40;;;;;;;14.37;77.16;95146.72;4952813;29;20201;-89
2022/07/13 02:52:54;;;;;;;6.27;3.73;;;;;;;14.46;77.21;95165.50;4953321;29;21176;-88
2022/07/13 02:55:22;;;;;;;4.53;3.60;;;;;;;14.29;76.96;95149.66;4951948;29;20664;-87
2022/07/13 02:57:50;;;;;;;9.10;3.50;;;;;;;14.37;77.65;95164.25;4951866;29;20627;-88
2022/07/13 03:00:17;;;;;;;6.50;3.53;;;;;;;14.31;77.75;95152.03;4950297;29;20233;-88
2022/07/13 03:02:44;;;;;;;8.03;3.67;;;;;;;14.25;77.57;95148.53;4952258;29;20229;-91
2022/07/13 03:05:11;;;;;;;9.53;3.97;;;;;;;14.40;77.55;95166.41;4953373;29;20350;-90
2022/07/13 03:07:40;;;;;;;9.57;4.10;;;;;;;14.36;77.80;95168.66;4954614;29;20212;-91
2022/07/13 03:10:08;;;;;;;6.73;4.00;;;;;;;14.43;78.80;95169.34;4956042;29;20201;-91
2022/07/13 03:12:35;;;;;;;11.33;4.60;;;;;;;14.36;78.84;95147.75;4955256;29;20684;-91
2022/07/13 03:15:02;;;;;;;10.13;4.30;;;;;;;14.44;79.65;95164.91;4955649;29;20228;-91
2022/07/13 03:17:29;;;;;;;18.00;4.27;;;;;;;14.41;78.45;95157.50;4953777;28;20233;-91
2022/07/13 03:19:56;;;;;;;9.20;4.17;;;;;;;14.47;78.62;95161.84;4954915;29;20213;-90
2022/07/13 03:22:23;;;;;;;8.67;4.30;;;;;;;14.47;79.27;95167.06;4956383;29;20198;-92
2022/07/13 03:24:51;;;;;;;7.87;4.20;;;;;;;14.25;79.25;95134.66;4955701;29;20276;-92
2022/07/13 03:27:18;;;;;;;13.33;4.03;;;;;;;14.14;79.28;95134.41;4956523;29;20210;-92
2022/07/13 03:29:45;;;;;;;12.23;4.30;;;;;;;14.14;79.92;95123.19;4955823;29;20201;-93
2022/07/13 03:32:12;;;;;;;12.40;4.10;;;;;;;14.37;79.41;95156.41;4954271;29;20202;-90
2022/07/13 03:34:39;;;;;;;7.90;3.70;;;;;;;14.24;79.44;95126.00;4952439;29;20233;-90
2022/07/13 03:37:07;;;;;;;6.90;3.33;;;;;;;14.50;78.47;95153.53;4953772;29;20233;-89
2022/07/13 03:39:35;;;;;;;8.53;3.80;;;;;;;14.55;77.98;95157.03;4951761;29;20244;-89
2022/07/13 03:42:03;;;;;;;8.53;3.73;;;;;;;14.50;78.10;95146.47;4952732;29;20292;-88
2022/07/13 03:44:30;;;;;;;8.53;3.67;;;;;;;14.53;78.26;95159.09;4952248;29;20217;-89
2022/07/13 03:46:58;;;;;;;8.90;3.37;;;;;;;14.52;78.12;95165.34;4951929;29;20288;-89
2022/07/13 03:49:25;;;;;;;6.93;3.53;;;;;;;14.56;77.67;95166.50;4952332;29;20225;-89
2022/07/13 03:51:52;;;;;;;9.97;4.20;;;;;;;14.57;78.31;95162.84;4952492;29;20218;-89
2022/07/13 03:54:19;;;;;;;8.67;3.60;;;;;;;14.41;78.54;95145.25;4951430;29;20197;-88
2022/07/13 03:56:46;;;;;;;6.90;3.30;;;;;;;14.49;78.06;95162.38;4949177;29;20715;-89
2022/07/13 03:59:15;;;;;;;5.53;2.83;;;;;;;14.52;78.26;95165.34;4949712;29;20204;-90
2022/07/13 04:01:42;;;;;;;4.93;3.33;;;;;;;14.52;77.68;95165.34;4950912;29;20209;-89
2022/07/13 04:04:10;;;;;;;3.70;2.80;;;;;;;14.52;76.76;95167.97;4952344;29;20209;-90
2022/07/13 04:06:37;;;;;;;7.17;3.03;;;;;;;14.44;77.35;95164.91;4951258;29;20209;-89
2022/07/13 04:09:04;;;;;;;9.20;3.40;;;;;;;14.38;78.11;95166.63;4952297;29;20598;-90
2022/07/13 04:11:32;;;;;;;9.13;3.20;;;;;;;14.34;78.63;95165.50;4951574;29;20212;-89
2022/07/13 04:14:00;;;;;;;11.47;3.37;;;;;;;14.30;78.66;95155.66;4952876;29;20615;-89
2022/07/13 04:16:29;;;;;;;8.83;3.80;;;;;;;14.47;78.94;95174.91;4953219;29;20652;-91
2022/07/13 04:18:56;;;;;;;9.53;4.53;;;;;;;14.50;79.46;95183.09;4952290;29;20205;-90
2022/07/13 04:21:23;;;;;;;7.13;3.83;;;;;;;14.59;79.32;95173.09;4950904;29;20207;-85
2022/07/13 04:23:50;;;;;;;7.83;4.17;;;;;;;14.67;78.73;95186.59;4951233;29;20664;-86
2022/07/13 04:26:17;;;;;;;6.17;3.90;;;;;;;14.51;78.64;95176.84;4951588;29;20229;-85
2022/07/13 04:28:44;;;;;;;5.97;4.10;;;;;;;14.58;78.83;95192.41;4950397;28;20206;-87
2022/07/13 04:31:11;;;;;;;10.40;4.27;;;;;;;14.55;79.28;95188.44;4950896;29;20213;-87
2022/07/13 04:33:40;;;;;;;9.47;4.10;;;;;;;14.59;79.62;95189.56;4951110;29;20206;-85
2022/07/13 04:36:08;;;;;;;12.00;4.37;;;;;;;14.65;79.46;95191.28;4952447;29;20253;-87
2022/07/13 04:38:35;;;;;;;10.60;4.20;;;;;;;14.70;79.22;95196.63;4949246;29;20731;-86
2022/07/13 04:41:14;;;;;;;10.10;4.77;;;;;;;14.77;78.05;95192.03;4951416;29;20285;-86
2022/07/13 04:43:45;;;;;;;7.00;4.00;;;;;;;14.87;76.68;95190.66;4950386;29;20209;-86
2022/07/13 04:46:12;;;;;;;8.60;3.63;;;;;;;14.93;76.19;95184.50;4958140;29;20240;-92
2022/07/13 04:48:40;;;;;;;8.67;4.10;;;;;;;14.98;76.40;95197.72;4959116;29;20670;-84
2022/07/13 04:51:07;;;;;;;12.33;4.10;;;;;;;15.01;76.26;95190.16;4951123;28;20291;-76
2022/07/13 04:53:35;;;;;;;9.77;4.30;;;;;;;15.04;76.17;95194.16;4956305;28;21101;-76
2022/07/13 04:56:04;;;;;;;7.63;4.10;;;;;;;15.09;76.01;95187.19;4955995;28;20231;-76
2022/07/13 04:58:33;;;;;;;10.93;4.80;;;;;;;15.10;75.74;95194.03;4953085;28;20200;-75
2022/07/13 05:01:04;;;;;;;11.30;5.90;;;;;;;15.14;75.35;95182.06;4955034;28;20202;-75
2022/07/13 05:03:33;;;;;;;11.93;4.70;;;;;;;15.22;75.42;95186.94;4952326;28;20196;-75
2022/07/13 05:06:04;;;;;;;10.70;4.50;;;;;;;15.30;74.97;95189.16;4961970;28;20197;-75
2022/07/13 05:08:31;;;;;;;9.90;4.33;;;;;;;15.36;74.98;95190.06;4961763;28;20201;-76
2022/07/13 05:10:58;;;;;;;8.43;4.43;;;;;;;15.44;74.60;95189.69;4963306;28;20197;-74
2022/07/13 05:13:25;;;;;;;13.67;4.37;;;;;;;15.46;74.48;95192.06;4960435;28;20197;-75
2022/07/13 05:15:52;;;;;;;7.70;3.87;;;;;;;15.51;73.60;95193.00;4961668;28;20201;-74
2022/07/13 05:18:19;;;;;;;4.67;3.80;;;;;;;15.61;73.12;95195.00;4957541;28;20276;-78
2022/07/13 05:20:46;;;;;;;8.00;4.20;;;;;;;15.59;73.50;95203.09;4956194;28;20201;-77
2022/07/13 05:23:15;;;;;;;8.27;3.70;;;;;;;15.65;73.18;95194.28;4952322;29;20636;-76
2022/07/13 05:25:41;;;;;;;6.60;3.60;;;;;;;15.71;73.33;95201.22;4952511;29;20194;-74
2022/07/13 05:28:08;;;;;;;12.43;3.87;;;;;;;15.69;72.96;95194.63;4964579;28;20200;-75
2022/07/13 05:30:35;;;;;;;8.93;2.87;;;;;;;15.60;73.82;95203.88;4970344;28;20231;-74
2022/07/13 05:33:02;;;;;;;6.00;2.93;;;;;;;15.66;73.60;95203.75;4970365;28;20211;-76
2022/07/13 05:35:29;;;;;;;12.37;3.07;;;;;;;15.79;73.38;95206.06;4971249;28;20193;-73
2022/07/13 05:37:56;;;;;;;5.23;2.90;;;;;;;15.73;72.06;95199.16;4970802;28;20232;-73
2022/07/13 05:40:24;;;;;;;6.97;3.20;;;;;;;15.78;71.11;95198.44;4972345;28;20192;-74
2022/07/13 05:42:52;;;;;;;7.70;2.60;;;;;;;15.80;70.96;95204.25;4974983;28;20193;-75
2022/07/13 05:45:19;;;;;;;6.17;2.87;;;;;;;15.87;70.54;95192.56;4974600;28;20199;-75
2022/07/13 05:47:47;;;;;;;5.30;2.67;;;;;;;15.95;70.17;95193.22;4968513;28;20209;-74
2022/07/13 05:50:14;;;;;;;5.73;2.90;;;;;;;16.07;69.40;95202.63;4954321;29;20197;-74
2022/07/13 05:52:42;;;;;;;9.67;2.67;;;;;;;16.20;68.71;95198.84;4953925;29;20287;-76
2022/07/13 05:55:09;;;;;;;5.50;2.60;;;;;;;16.31;69.16;95200.59;4953742;29;20213;-74
2022/07/13 05:57:38;;;;;;;6.33;2.60;;;;;;;16.33;68.89;95194.06;4953919;29;20225;-74
2022/07/13 06:00:11;;;;;;;7.40;2.80;;;;;;;16.38;68.82;95196.78;4954434;29;20256;-74
2022/07/13 06:02:38;;;;;;;5.00;2.37;;;;;;;16.51;68.06;95193.03;4955742;29;20524;-76
2022/07/13 06:05:06;;;;;;;6.27;2.53;;;;;;;16.61;67.11;95195.84;4955765;29;20220;-74
2022/07/13 06:07:33;;;;;;;5.63;2.30;;;;;;;16.67;66.67;95194.88;4955216;29;20605;-74
2022/07/13 06:10:01;;;;;;;8.57;2.80;;;;;;;16.76;67.04;95193.44;4955129;29;20197;-74
2022/07/13 06:12:28;;;;;;;6.77;1.87;;;;;;;16.85;64.99;95193.81;4955229;29;20293;-74
2022/07/13 06:14:57;;;;;;;6.07;2.50;;;;;;;16.88;63.38;95191.47;4955051;28;20668;-74
2022/07/13 06:17:24;;;;;;;3.87;2.10;;;;;;;16.97;62.57;95197.09;4961912;28;20304;-74
2022/07/13 06:19:51;;;;;;;6.57;2.07;;;;;;;16.99;62.07;95187.94;4963834;28;20251;-74
2022/07/13 06:22:18;;;;;;;4.97;2.00;;;;;;;17.06;61.04;95179.88;4963158;28;20641;-74
2022/07/13 06:24:46;;;;;;;4.83;2.40;;;;;;;17.25;59.59;95180.34;4963805;28;20192;-74
2022/07/13 06:27:13;;;;;;;6.03;2.37;;;;;;;17.37;59.85;95181.78;4961442;28;20829;-76
2022/07/13 06:29:42;;;;;;;5.63;2.13;;;;;;;17.56;59.40;95192.81;4962845;28;20534;-75
2022/07/13 06:32:11;;;;;;;3.70;2.43;;;;;;;17.57;58.75;95183.88;4961472;28;20661;-74
2022/07/13 06:34:38;;;;;;;7.50;2.00;;;;;;;17.64;58.88;95179.22;4962067;28;20236;-73
2022/07/13 06:37:06;;;;;;;5.17;2.27;;;;;;;17.69;57.81;95181.88;4962962;28;20217;-74
2022/07/13 06:39:33;;;;;;;5.27;1.90;;;;;;;17.70;57.68;95180.84;4962840;28;20197;-74
2022/07/13 06:42:00;;;;;;;6.53;2.00;;;;;;;17.66;58.07;95181.59;4963820;28;20201;-74
2022/07/13 06:44:28;;;;;;;4.63;2.00;;;;;;;17.66;58.18;95173.72;4962077;28;20193;-75
2022/07/13 06:46:55;;;;;;;6.27;2.20;;;;;;;17.67;57.88;95175.28;4964003;28;20280;-74
2022/07/13 06:49:23;;;;;;;4.10;2.50;;;;;;;17.75;57.72;95174.84;4960567;28;20667;-75
2022/07/13 06:51:50;;;;;;;7.57;2.10;;;;;;;17.87;57.60;95178.91;4959892;28;20194;-75
2022/07/13 06:54:17;;;;;;;1.90;1.60;;;;;;;17.95;56.60;95180.28;4961675;28;20649;-76
2022/07/13 06:56:44;;;;;;;5.30;2.10;;;;;;;18.04;56.54;95174.31;4963133;28;20768;-75
2022/07/13 06:59:11;;;;;;;9.93;2.60;;;;;;;18.12;56.70;95175.69;4963404;28;20198;-75
2022/07/13 07:01:38;;;;;;;5.93;2.73;;;;;;;18.19;56.02;95173.63;4964499;28;20227;-75
2022/07/13 07:04:05;;;;;;;6.57;2.20;;;;;;;18.22;55.87;95175.75;4962628;28;20198;-76
2022/07/13 07:06:34;;;;;;;4.10;1.83;;;;;;;18.36;55.13;95169.00;4965485;28;20197;-75
2022/07/13 07:09:00;;;;;;;4.35;2.08;;;;;;;18.50;54.99;95178.09;4960961;28;20203;-75
2022/07/13 07:11:27;;;;;;;4.97;1.92;;;;;;;18.58;54.86;95167.09;4962642;28;20198;-75
2022/07/13 07:13:58;;;;;;;8.05;2.40;;;;;;;18.62;55.01;95173.41;4961544;28;20672;-75
2022/07/13 07:16:24;;;;;;;2.97;2.10;;;;;;;18.70;54.39;95172.13;4968818;28;20193;-84
2022/07/13 07:18:51;;;;;;;3.35;2.10;;;;;;;18.84;54.68;95177.75;4958690;28;20760;-80
2022/07/13 07:21:18;;;;;;;8.27;2.47;;;;;;;18.94;55.38;95183.84;4954682;29;20201;-78
2022/07/13 07:23:47;;;;;;;4.60;2.08;;;;;;;19.06;53.83;95187.09;4954575;29;20216;-79
2022/07/13 07:26:15;;;;;;;4.75;1.63;;;;;;;19.18;51.63;95181.59;4954740;29;20269;-78
2022/07/13 07:28:43;;;;;;;5.60;2.28;;;;;;;19.15;52.22;95182.09;4954873;29;20201;-78
2022/07/13 07:31:09;;;;;;;6.25;2.20;;;;;;;19.19;52.16;95178.69;4959823;28;20228;-78
2022/07/13 07:33:36;;;;;;;5.80;2.08;;;;;;;19.18;52.22;95189.50;4970257;28;20569;-82
2022/07/13 07:36:05;;;;;;;3.42;1.83;;;;;;;19.26;50.23;95184.53;4958927;28;20193;-79
2022/07/13 07:38:33;;;;;;;13.55;2.10;;;;;;;19.30;51.58;95182.16;4964812;28;20233;-81
2022/07/13 07:41:01;;;;;;;5.82;1.67;;;;;;;19.35;51.58;95191.94;4960961;28;20205;-80
2022/07/13 07:43:28;;;;;;;4.03;1.80;;;;;;;19.33;50.86;95181.66;4956858;28;20204;-82
2022/07/13 07:45:57;;;;;;;6.32;2.15;;;;;;;19.53;51.10;95178.31;4964166;28;20193;-76
2022/07/13 07:48:24;;;;;;;4.40;1.95;;;;;;;19.66;50.46;95169.88;4960152;28;20211;-78
2022/07/13 07:50:51;;;;;;;7.05;1.95;;;;;;;19.75;49.33;95174.38;4960633;28;20597;-74
2022/07/13 07:53:17;;;;;;;5.93;2.33;;;;;;;19.88;51.88;95169.66;4961578;28;20293;-76
2022/07/13 07:55:45;;;;;;;2.17;1.90;;;;;;;20.04;52.24;95174.66;4962365;28;20194;-76
2022/07/13 07:58:14;;;;;;;4.90;1.90;;;;;;;20.10;49.88;95178.09;4960226;28;20217;-77
2022/07/13 08:00:41;;;;;;;2.13;1.58;;;;;;;20.27;50.74;95179.44;4961382;28;20208;-76
2022/07/13 08:03:09;;;;;;;4.15;2.13;;;;;;;20.28;48.20;95177.63;4959909;28;20204;-77
2022/07/13 08:05:37;;;;;;;4.85;2.00;;;;;;;20.16;49.58;95162.00;4956950;28;20837;-77
2022/07/13 08:08:05;;;;;;;6.88;1.70;;;;;;;20.25;47.58;95165.72;4957183;28;20252;-77
2022/07/13 08:10:32;;;;;;;8.30;1.95;;;;;;;20.18;49.20;95170.44;4962339;28;20273;-75
2022/07/13 08:13:04;;;;;;;6.15;1.77;;;;;;;20.16;48.32;95169.94;4959629;28;20201;-78
2022/07/13 08:15:33;;;;;;;4.78;1.77;;;;;;;20.19;48.21;95165.97;4959813;28;20252;-79
2022/07/13 08:18:00;;;;;;;4.95;2.00;;;;;;;20.07;47.83;95165.44;4959547;28;20295;-78
2022/07/13 08:20:27;;;;;;;6.40;2.17;;;;;;;20.13;48.64;95177.56;4960104;28;20683;-79
2022/07/13 08:22:55;;;;;;;4.95;2.00;;;;;;;20.24;48.81;95165.94;4957761;28;20201;-78
2022/07/13 08:25:23;;;;;;;9.10;2.10;;;;;;;20.34;49.78;95176.56;4962311;28;20260;-78
2022/07/13 08:27:50;;;;;;;7.47;1.92;;;;;;;20.36;47.99;95169.94;4963543;28;20211;-78
2022/07/13 08:30:18;;;;;;;5.20;1.92;;;;;;;20.35;47.41;95168.34;4961345;28;20193;-78
2022/07/13 08:32:47;;;;;;;4.80;1.70;;;;;;;20.43;47.74;95167.03;4963513;28;20201;-78
2022/07/13 08:40:44;;;;;;;2.88;1.60;;;;;;;20.71;45.78;95157.72;4953299;29;20189;-79
2022/07/13 08:43:11;;;;;;;4.65;1.90;;;;;;;20.73;46.76;95166.16;4953101;29;20245;-80
2022/07/13 08:45:39;;;;;;;2.47;1.55;;;;;;;20.80;45.64;95167.50;4953363;29;20590;-81
2022/07/13 08:48:15;;;;;;;2.97;2.00;;;;;;;20.98;48.21;95176.66;4953294;29;20292;-80
2022/07/13 08:50:43;;;;;;;5.28;2.00;;;;;;;21.08;46.25;95170.59;4952851;29;20280;-80
2022/07/13 08:53:10;;;;;;;3.30;1.95;;;;;;;21.15;45.04;95171.91;4953255;29;20220;-80
2022/07/13 08:55:39;;;;;;;4.05;1.70;;;;;;;21.20;44.18;95163.13;4953191;29;20198;-82
2022/07/13 08:58:06;;;;;;;4.68;2.25;;;;;;;21.29;46.10;95169.44;4953321;29;20225;-80
2022/07/13 09:00:34;;;;;;;8.48;1.80;;;;;;;21.35;43.34;95166.50;4953434;29;20202;-81
2022/07/13 09:03:03;;;;;;;6.03;3.05;;;;;;;21.22;43.74;95169.72;4953362;29;20201;-81
2022/07/13 09:05:34;;;;;;;5.05;2.40;;;;;;;20.94;43.88;95159.78;4953495;29;20276;-81
2022/07/13 09:08:05;;;;;;;5.40;1.98;;;;;;;20.97;43.98;95164.53;4952274;29;20586;-81
2022/07/13 09:10:32;;;;;;;8.80;2.47;;;;;;;20.99;43.72;95162.41;4952732;29;20668;-81
2022/07/13 09:12:59;;;;;;;2.28;1.58;;;;;;;21.07;43.63;95159.19;4953126;29;20201;-81
2022/07/13 09:15:27;;;;;;;4.15;1.80;;;;;;;21.11;43.26;95159.47;4955371;28;20716;-81
2022/07/13 09:17:53;;;;;;;5.38;1.77;;;;;;;21.13;44.01;95165.25;4959209;28;20615;-80
2022/07/13 09:20:23;;;;;;;4.18;1.42;;;;;;;21.22;42.64;95161.00;4958747;29;20205;-81
2022/07/13 09:22:53;;;;;;;1.98;1.38;;;;;;;21.24;42.65;95157.03;4959078;28;20668;-80
2022/07/13 09:25:32;;;;;;;4.22;1.70;;;;;;;21.43;42.92;95151.91;4958984;28;21017;-81
2022/07/13 09:28:02;;;;;;;2.05;1.75;;;;;;;21.63;43.40;95151.78;4958156;29;20181;-81
2022/07/13 09:30:29;;;;;;;3.65;1.50;;;;;;;21.89;43.46;95147.16;4959067;29;20194;-81
2022/07/13 09:32:57;;;;;;;3.05;1.60;;;;;;;22.05;43.15;95153.91;4958264;28;20233;-81
2022/07/13 09:35:43;;;;;;;2.38;1.30;;;;;;;22.04;40.92;95149.69;4958430;29;20228;-79
2022/07/13 09:38:29;;;;;;;4.68;1.52;;;;;;;22.08;41.53;95155.22;4959017;29;20235;-79
2022/07/13 09:40:56;;;;;;;1.80;1.58;;;;;;;22.13;41.98;95149.88;4968719;28;20204;-83
2022/07/13 09:46:10;;;;;;;3.65;1.63;;;;;;;22.25;41.02;95131.78;4971493;28;20274;-75
2022/07/13 09:48:37;;;;;;;6.18;1.80;;;;;;;21.98;41.66;95145.50;4966488;28;20209;-75
2022/07/13 09:51:05;;;;;;;5.78;2.00;;;;;;;21.98;42.79;95151.59;4958079;29;20629;-75
2022/07/13 09:53:36;;;;;;;2.20;1.50;;;;;;;22.03;41.70;95151.53;4958456;29;20206;-76
2022/07/13 09:56:05;;;;;;;5.57;1.50;;;;;;;22.07;41.86;95156.28;4958720;28;20656;-74
2022/07/13 09:58:33;;;;;;;2.88;1.30;;;;;;;22.15;41.62;95151.19;4958459;29;20263;-74
2022/07/13 10:01:02;;;;;;;6.82;1.45;;;;;;;22.38;42.08;95150.44;4958248;28;20688;-74
2022/07/13 10:03:29;;;;;;;2.80;1.90;;;;;;;22.74;42.19;95155.44;4958803;28;20641;-74
2022/07/13 10:05:57;;;;;;;2.58;1.40;;;;;;;22.96;40.01;95159.16;4958163;28;20204;-74
2022/07/13 10:08:24;;;;;;;2.33;1.42;;;;;;;23.14;38.78;95154.97;4958821;28;20193;-75
2022/07/13 10:10:53;;;;;;;5.25;1.50;;;;;;;23.14;39.54;95154.97;4957979;28;20292;-75
2022/07/13 10:13:20;;;;;;;3.85;1.77;;;;;;;23.20;39.32;95140.56;4958604;29;20201;-74
2022/07/13 10:15:48;;;;;;;9.40;1.70;;;;;;;23.30;38.87;95142.28;4958190;28;20197;-74
2022/07/13 10:18:20;;;;;;;3.47;1.58;;;;;;;23.27;39.58;95148.97;4957514;28;20229;-74
2022/07/13 10:20:53;;;;;;;3.55;1.50;;;;;;;23.25;39.67;95143.16;4957279;28;20205;-74
2022/07/13 10:23:36;;;;;;;3.20;1.60;;;;;;;23.14;40.16;95139.06;4958317;29;20715;-75
2022/07/13 10:26:04;;;;;;;2.35;1.40;;;;;;;23.18;40.54;95137.41;4958067;29;20181;-76
2022/07/13 10:28:32;;;;;;;1.88;1.50;;;;;;;23.46;39.98;95141.06;4954269;28;20280;-74
2022/07/13 10:31:28;;;;;;;3.28;1.40;;;;;;;23.54;39.28;95135.09;4954313;29;20202;-74
2022/07/13 10:33:55;;;;;;;1.65;1.40;;;;;;;23.53;40.44;95130.88;4955012;29;20194;-75
2022/07/13 10:36:56;;;;;;;5.13;2.00;;;;;;;23.50;39.99;95123.47;4955513;29;20197;-79
2022/07/13 10:39:24;;;;;;;2.75;1.50;;;;;;;23.57;40.69;95130.03;4955281;29;20241;-80
2022/07/13 10:42:00;;;;;;;6.93;1.58;;;;;;;23.43;40.79;95128.38;4955683;29;20209;-81
2022/07/13 10:44:36;;;;;;;4.93;1.50;;;;;;;23.20;41.09;95135.28;4955377;29;20233;-79
2022/07/13 10:47:04;;;;;;;3.75;1.50;;;;;;;23.30;40.43;95126.38;4955377;29;20204;-79
2022/07/13 10:49:45;;;;;;;3.90;1.80;;;;;;;23.24;41.15;95130.16;4955306;29;20213;-79
2022/07/13 10:52:51;;;;;;;3.08;1.60;;;;;;;23.55;39.38;95131.38;4955062;29;20203;-79
2022/07/13 10:55:29;;;;;;;2.10;1.52;;;;;;;24.06;38.00;95124.22;4955959;29;20196;-79
2022/07/13 10:57:58;;;;;;;2.38;1.48;;;;;;;24.55;37.91;95130.84;4955284;29;20224;-80
2022/07/13 11:00:42;;;;;;;4.32;1.50;;;;;;;24.83;37.62;95125.28;4948671;29;20291;-77
2022/07/13 11:03:24;;;;;;;1.67;1.50;;;;;;;24.94;38.00;95122.41;4947126;29;20200;-78
2022/07/13 11:06:07;;;;;;;2.42;1.58;;;;;;;24.80;37.66;95130.41;4946915;29;20685;-77
2022/07/13 11:08:36;;;;;;;2.83;1.48;;;;;;;24.69;37.95;95129.78;4936767;29;20190;-86
2022/07/13 11:11:15;;;;;;;2.15;1.60;;;;;;;24.81;37.97;95122.16;4936447;29;20202;-86
2022/07/13 11:13:46;;;;;;;4.10;1.42;;;;;;;24.83;38.17;95113.88;4936823;29;20217;-90
2022/07/13 11:16:14;;;;;;;1.58;1.45;;;;;;;25.02;37.72;95127.06;4937040;29;20191;-84
2022/07/13 11:18:42;;;;;;;1.55;1.40;;;;;;;25.07;37.27;95117.13;4947377;29;20256;-80
2022/07/13 11:21:12;;;;;;;6.15;1.40;;;;;;;25.40;36.92;95120.41;4954610;29;20614;-80
2022/07/13 11:26:58;;;;;;;1.70;1.40;;;;;;;26.18;35.92;95103.19;4955067;29;20185;-83
2022/07/13 11:29:38;;;;;;;1.77;1.27;;;;;;;26.33;34.50;95110.81;4954885;29;20272;-83
2022/07/13 11:32:07;;;;;;;3.15;1.33;;;;;;;26.35;35.02;95113.97;4955295;29;20211;-82
2022/07/13 11:34:36;;;;;;;4.45;1.30;;;;;;;26.06;36.18;95109.03;4955148;29;20193;-82
2022/07/13 11:37:03;;;;;;;6.95;1.70;;;;;;;25.96;36.34;95117.31;4954902;29;20205;-80
2022/07/13 11:39:32;;;;;;;4.05;1.48;;;;;;;25.66;36.39;95104.69;4954959;28;20236;-83
2022/07/13 11:42:01;;;;;;;4.38;1.70;;;;;;;25.64;36.58;95104.19;4955410;29;20697;-79
2022/07/13 11:44:30;;;;;;;6.07;1.60;;;;;;;25.75;36.33;95102.88;4954394;29;20720;-85
2022/07/13 11:46:59;;;;;;;2.72;1.80;;;;;;;25.77;36.90;95103.38;4954107;29;20193;-81
2022/07/13 11:49:27;;;;;;;3.45;1.58;;;;;;;26.00;36.71;95096.16;4953191;29;20245;-79